Time;durP1;ratioP1;P1;durP2;ratioP2;P2;SDS_P1;SDS_P2;PMS_P1;PMS_P2;Temp;Humidity;BMP_temperature;BMP_pressure;BME280_temperature;BME280_humidity;BME280_pressure;Samples;Min_cycle;Max_cycle;Signal;HPM_P1;HPM_P2
2023/05/30 00:01:33;;;;;;;7.45;3.65;;;;;;;18.79;40.65;99202.13;5149902;27;20092;-76
2023/05/30 00:04:01;;;;;;;5.25;3.90;;;;;;;18.77;40.85;99198.75;5149889;27;20043;-76
2023/05/30 00:06:28;;;;;;;6.38;3.53;;;;;;;18.75;41.16;99190.84;5149885;27;20333;-76
2023/05/30 00:08:55;;;;;;;6.15;4.28;;;;;;;18.75;40.86;99192.66;5150368;27;20058;-76
2023/05/30 00:11:24;;;;;;;6.95;4.75;;;;;;;18.71;41.11;99186.72;5150016;27;20039;-76
2023/05/30 00:13:51;;;;;;;7.40;5.10;;;;;;;18.71;40.99;99183.19;5149856;27;20088;-77
2023/05/30 00:16:19;;;;;;;6.38;4.18;;;;;;;18.71;41.08;99185.88;5150228;27;20054;-77
2023/05/30 00:18:46;;;;;;;6.05;4.03;;;;;;;18.71;40.80;99180.50;5149857;27;20050;-77
2023/05/30 00:21:14;;;;;;;5.80;3.85;;;;;;;17.37;40.95;98970.06;5148835;27;20282;-77
2023/05/30 00:23:40;;;;;;;4.97;3.70;;;;;;;18.61;40.93;99182.34;5150042;27;20096;-77
2023/05/30 00:26:09;;;;;;;5.55;3.55;;;;;;;18.59;41.11;99190.53;5150071;27;20066;-77
2023/05/30 00:28:38;;;;;;;7.40;3.90;;;;;;;18.58;40.81;99189.69;5149718;27;20344;-74
2023/05/30 00:31:05;;;;;;;5.07;4.00;;;;;;;18.59;40.62;99199.44;5149396;27;20054;-74
2023/05/30 00:33:32;;;;;;;5.35;3.35;;;;;;;18.35;40.53;99158.69;5149317;27;20043;-74
2023/05/30 00:35:58;;;;;;;6.47;3.40;;;;;;;18.34;40.56;99153.47;5148780;27;20035;-74
2023/05/30 00:38:25;;;;;;;4.78;3.50;;;;;;;18.54;40.69;99199.00;5149273;27;20053;-74
2023/05/30 00:40:52;;;;;;;7.00;3.20;;;;;;;18.54;41.18;99206.22;5148520;27;20076;-74
2023/05/30 00:43:19;;;;;;;5.05;3.08;;;;;;;16.35;41.16;98838.91;5148188;27;20122;-73
2023/05/30 00:45:52;;;;;;;6.72;3.95;;;;;;;18.46;40.95;99195.28;5149028;27;20310;-74
2023/05/30 00:48:19;;;;;;;5.57;3.50;;;;;;;18.41;40.97;99201.06;5148176;27;20039;-74
2023/05/30 00:50:46;;;;;;;5.82;3.35;;;;;;;18.38;41.29;99201.34;5149570;27;20039;-75
2023/05/30 00:53:13;;;;;;;5.20;3.45;;;;;;;18.35;40.97;99206.13;5148986;27;20084;-74
2023/05/30 00:55:40;;;;;;;6.05;3.80;;;;;;;18.09;41.08;99177.13;5149246;27;20042;-75
2023/05/30 00:58:07;;;;;;;6.63;4.63;;;;;;;18.28;41.21;99204.00;5148869;27;20051;-74
2023/05/30 01:00:38;;;;;;;5.88;3.53;;;;;;;17.93;41.37;99161.53;5149339;27;20031;-75
2023/05/30 01:03:08;;;;;;;8.15;3.70;;;;;;;18.23;41.48;99208.94;5149392;27;20031;-75
2023/05/30 01:05:35;;;;;;;4.82;3.55;;;;;;;17.57;41.22;99098.59;5149064;27;20042;-75
2023/05/30 01:08:02;;;;;;;5.95;3.38;;;;;;;18.19;40.96;99202.13;5148945;27;20039;-74
2023/05/30 01:10:31;;;;;;;5.28;3.35;;;;;;;17.99;41.22;99180.75;5148917;27;20320;-75
2023/05/30 01:13:06;;;;;;;6.07;3.25;;;;;;;18.15;41.11;99215.97;5147781;27;20118;-75
2023/05/30 01:15:37;;;;;;;4.15;3.25;;;;;;;17.90;41.16;99175.22;5149078;27;20035;-74
2023/05/30 01:18:12;;;;;;;5.50;3.38;;;;;;;17.11;41.17;99044.66;5148482;27;20110;-74
2023/05/30 01:20:44;;;;;;;4.47;3.03;;;;;;;18.14;41.28;99214.25;5148921;27;20041;-74
2023/05/30 01:23:43;;;;;;;7.68;3.33;;;;;;;18.13;41.86;99208.03;5148423;27;20039;-74
2023/05/30 01:26:25;;;;;;;10.63;3.88;;;;;;;18.11;41.34;99215.38;5148805;27;20043;-74
2023/05/30 01:28:56;;;;;;;5.75;3.30;;;;;;;17.86;41.16;99181.84;5148513;27;20043;-73
2023/05/30 01:31:24;;;;;;;5.97;3.45;;;;;;;18.08;40.84;99223.69;5148817;27;20042;-74
2023/05/30 01:33:52;;;;;;;5.05;3.50;;;;;;;18.08;41.11;99218.34;5147075;27;20126;-73
2023/05/30 01:36:19;;;;;;;5.13;3.45;;;;;;;18.08;41.24;99218.34;5148640;27;20043;-74
2023/05/30 01:38:46;;;;;;;4.70;3.33;;;;;;;18.04;41.17;99214.22;5148622;27;20035;-75
2023/05/30 01:41:21;;;;;;;4.45;3.10;;;;;;;18.03;41.18;99222.41;5130119;27;20046;-75
2023/05/30 01:43:59;;;;;;;4.72;3.35;;;;;;;17.68;41.14;99164.69;5146973;27;20051;-76
2023/05/30 01:46:32;;;;;;;5.68;3.13;;;;;;;17.98;41.68;99216.59;5147990;27;20291;-76
2023/05/30 01:49:09;;;;;;;6.88;3.22;;;;;;;17.99;41.21;99212.94;5148110;27;20275;-74
2023/05/30 01:51:43;;;;;;;6.03;3.25;;;;;;;18.00;41.72;99210.13;5147717;27;20043;-74
2023/05/30 01:54:13;;;;;;;5.63;4.07;;;;;;;18.01;41.44;99210.97;5147800;27;20106;-73
2023/05/30 01:56:40;;;;;;;6.95;3.50;;;;;;;17.87;41.51;99191.56;5148292;27;20047;-74
2023/05/30 01:59:09;;;;;;;5.65;3.83;;;;;;;18.02;41.38;99216.19;5147964;27;20039;-73
2023/05/30 02:01:37;;;;;;;4.97;3.50;;;;;;;17.78;41.58;99172.78;5147627;27;20035;-74
2023/05/30 02:04:04;;;;;;;7.22;3.85;;;;;;;18.01;41.67;99209.13;5146845;27;20047;-76
2023/05/30 02:06:31;;;;;;;5.20;3.67;;;;;;;18.00;41.51;99214.63;5148044;27;20043;-75
2023/05/30 02:08:58;;;;;;;5.32;3.30;;;;;;;17.92;41.47;99208.09;5147119;27;20209;-76
2023/05/30 02:11:25;;;;;;;4.65;3.35;;;;;;;17.95;41.53;99212.34;5147071;27;20205;-75
2023/05/30 02:13:52;;;;;;;6.50;3.20;;;;;;;17.91;41.92;99217.13;5147621;27;20073;-75
2023/05/30 02:16:20;;;;;;;3.92;3.17;;;;;;;17.86;41.65;99219.38;5147661;27;20039;-75
2023/05/30 02:18:48;;;;;;;5.82;3.72;;;;;;;17.82;41.80;99212.56;5147587;27;20286;-76
2023/05/30 02:21:14;;;;;;;5.28;3.47;;;;;;;17.84;41.81;99220.47;5147538;27;20047;-75
2023/05/30 02:23:41;;;;;;;4.57;3.33;;;;;;;17.82;42.18;99209.03;5146587;27;20045;-76
2023/05/30 02:26:08;;;;;;;7.03;3.80;;;;;;;17.83;42.13;99218.78;5148038;27;20106;-76
2023/05/30 02:28:35;;;;;;;5.65;3.20;;;;;;;17.81;42.30;99212.72;5147427;27;20043;-76
2023/05/30 02:31:03;;;;;;;5.18;3.20;;;;;;;17.79;42.12;99217.34;5146674;27;20080;-75
2023/05/30 02:33:31;;;;;;;5.72;3.50;;;;;;;17.78;42.37;99215.66;5147651;27;20047;-76
2023/05/30 02:35:58;;;;;;;5.20;3.15;;;;;;;17.63;42.17;99196.41;5146706;27;20330;-75
2023/05/30 02:38:25;;;;;;;4.70;3.13;;;;;;;17.79;42.19;99220.88;5147736;27;20103;-75
2023/05/30 02:40:52;;;;;;;6.53;3.63;;;;;;;17.80;42.08;99221.72;5146181;27;20210;-76
2023/05/30 02:43:19;;;;;;;5.80;3.63;;;;;;;17.81;42.14;99223.44;5147041;27;20051;-76
2023/05/30 02:45:46;;;;;;;4.38;3.25;;;;;;;17.81;42.20;99223.44;5147214;27;20192;-75
2023/05/30 02:48:12;;;;;;;7.35;3.85;;;;;;;17.81;41.91;99228.78;5146769;27;20046;-75
2023/05/30 02:50:40;;;;;;;7.85;4.10;;;;;;;17.79;42.16;99220.88;5146815;27;20237;-75
2023/05/30 02:53:07;;;;;;;5.45;3.70;;;;;;;17.78;42.30;99224.53;5145899;27;20047;-75
2023/05/30 02:55:34;;;;;;;5.50;2.88;;;;;;;17.78;42.16;99227.22;5146999;27;20046;-76
2023/05/30 02:58:01;;;;;;;5.65;3.35;;;;;;;17.76;42.39;99225.66;5146659;27;20084;-76
2023/05/30 03:00:28;;;;;;;8.48;3.42;;;;;;;17.77;42.48;99232.72;5145825;27;20050;-76
2023/05/30 03:02:55;;;;;;;6.95;3.75;;;;;;;17.74;42.19;99223.13;5146755;27;20031;-76
2023/05/30 03:05:22;;;;;;;6.10;3.47;;;;;;;17.71;42.29;99233.25;5146633;27;20035;-76
2023/05/30 03:07:51;;;;;;;4.70;3.15;;;;;;;17.71;42.57;99235.94;5145728;28;20356;-76
2023/05/30 03:10:18;;;;;;;4.72;3.08;;;;;;;17.70;42.61;99242.28;5147097;28;20035;-76
2023/05/30 03:12:45;;;;;;;4.88;3.58;;;;;;;17.68;42.28;99242.41;5146568;28;20031;-75
2023/05/30 03:15:11;;;;;;;5.03;4.10;;;;;;;17.68;42.35;99245.09;5146465;28;20039;-76
2023/05/30 03:17:39;;;;;;;4.88;3.10;;;;;;;17.65;42.55;99247.19;5145610;28;20050;-76
2023/05/30 03:20:08;;;;;;;7.07;4.30;;;;;;;17.61;42.63;99251.94;5146580;28;20035;-74
2023/05/30 03:22:34;;;;;;;6.22;4.35;;;;;;;17.58;42.59;99254.88;5146658;28;20321;-74
2023/05/30 03:25:03;;;;;;;10.60;4.72;;;;;;;17.55;42.76;99252.44;5146428;28;20084;-76
2023/05/30 03:27:30;;;;;;;6.18;3.65;;;;;;;17.54;42.89;99251.59;5146344;28;20031;-76
2023/05/30 03:30:05;;;;;;;7.35;3.90;;;;;;;17.52;43.05;99261.59;5146672;28;20039;-76
2023/05/30 03:32:32;;;;;;;4.82;3.58;;;;;;;17.53;42.88;99255.25;5146658;27;20061;-76
2023/05/30 03:34:59;;;;;;;4.65;3.15;;;;;;;17.51;42.78;99256.38;5146301;28;20241;-76
2023/05/30 03:37:25;;;;;;;4.30;3.22;;;;;;;17.52;43.01;99247.34;5146281;28;20046;-76
2023/05/30 03:39:52;;;;;;;5.18;3.53;;;;;;;17.45;42.83;99257.75;5146792;28;20043;-76
2023/05/30 03:42:21;;;;;;;6.70;3.40;;;;;;;17.38;43.53;99256.56;5145839;28;20043;-76
2023/05/30 03:44:47;;;;;;;6.45;3.72;;;;;;;17.14;43.13;99226.47;5145619;28;20047;-76
2023/05/30 03:47:14;;;;;;;5.70;3.50;;;;;;;17.33;43.18;99264.13;5146181;28;20051;-76
2023/05/30 03:49:41;;;;;;;5.25;3.67;;;;;;;17.08;43.74;99217.13;5146702;28;20053;-76
2023/05/30 03:52:08;;;;;;;9.57;4.40;;;;;;;14.92;43.86;98868.81;5146774;28;20047;-75
2023/05/30 03:54:34;;;;;;;6.72;5.18;;;;;;;17.29;43.65;99266.22;5146330;28;20043;-75
2023/05/30 03:57:01;;;;;;;8.48;4.10;;;;;;;17.18;43.47;99243.97;5146150;28;20085;-75
2023/05/30 03:59:30;;;;;;;6.05;4.03;;;;;;;17.30;43.91;99267.06;5146669;28;20353;-75
2023/05/30 04:01:58;;;;;;;5.82;4.28;;;;;;;17.29;43.57;99270.72;5145215;28;20035;-75
2023/05/30 04:04:26;;;;;;;7.20;4.35;;;;;;;17.29;44.05;99268.06;5146678;28;20039;-75
2023/05/30 04:06:53;;;;;;;7.25;3.78;;;;;;;17.32;43.99;99270.47;5145194;28;20341;-75
2023/05/30 04:09:20;;;;;;;5.07;3.83;;;;;;;17.35;44.00;99264.00;5147166;27;20199;-75
2023/05/30 04:11:47;;;;;;;8.15;4.40;;;;;;;17.37;44.12;99265.56;5149793;27;20039;-75
2023/05/30 04:14:13;;;;;;;6.45;3.38;;;;;;;17.37;44.17;99278.97;5149749;27;20043;-76
2023/05/30 04:16:41;;;;;;;26.20;5.47;;;;;;;17.39;44.54;99268.13;5148820;27;20031;-77
2023/05/30 04:19:08;;;;;;;39.00;5.88;;;;;;;17.39;44.81;99277.00;5149954;27;20283;-76
2023/05/30 04:21:35;;;;;;;6.57;3.95;;;;;;;17.42;44.20;99275.91;5149561;27;20095;-76
2023/05/30 04:24:03;;;;;;;7.32;4.20;;;;;;;17.43;44.65;99278.44;5148683;27;20046;-76
2023/05/30 04:26:31;;;;;;;7.38;3.83;;;;;;;17.45;44.51;99281.84;5150049;27;20039;-76
2023/05/30 04:28:57;;;;;;;8.40;3.95;;;;;;;17.48;44.26;99281.59;5149815;27;20042;-75
2023/05/30 04:31:25;;;;;;;16.73;5.28;;;;;;;17.50;44.14;99276.94;5149398;27;20042;-75
2023/05/30 04:33:54;;;;;;;5.80;3.78;;;;;;;17.55;44.43;99277.41;5149368;27;20035;-76
2023/05/30 04:36:21;;;;;;;10.95;4.28;;;;;;;17.57;44.37;99286.16;5148454;27;20047;-75
2023/05/30 04:38:49;;;;;;;8.93;4.07;;;;;;;17.60;44.01;99285.06;5149514;27;20100;-76
2023/05/30 04:41:20;;;;;;;11.45;3.92;;;;;;;17.65;44.27;99284.69;5149709;27;20038;-76
2023/05/30 04:43:52;;;;;;;8.23;4.50;;;;;;;17.40;43.77;99240.34;5148059;27;20126;-76
2023/05/30 04:46:21;;;;;;;8.45;3.78;;;;;;;17.68;43.98;99279.94;5149401;27;20114;-76
2023/05/30 04:48:52;;;;;;;8.75;4.28;;;;;;;16.90;44.21;99152.59;5148392;27;20051;-76
2023/05/30 04:51:21;;;;;;;7.40;4.40;;;;;;;17.62;44.51;99270.59;5149584;27;20047;-76
2023/05/30 04:53:48;;;;;;;12.10;5.90;;;;;;;17.78;43.71;99285.34;5149570;27;20055;-76
2023/05/30 04:56:15;;;;;;;11.57;5.22;;;;;;;17.80;43.85;99275.34;5148860;27;20050;-76
2023/05/30 04:58:41;;;;;;;7.95;5.53;;;;;;;17.58;43.96;99238.78;5149398;27;20091;-76
2023/05/30 05:01:10;;;;;;;27.52;8.40;;;;;;;17.90;43.79;99278.94;5149001;27;20377;-76
2023/05/30 05:03:37;;;;;;;13.98;5.95;;;;;;;17.92;44.34;99282.31;5149162;27;20041;-76
2023/05/30 05:06:04;;;;;;;11.50;4.32;;;;;;;17.94;44.15;99283.91;5149141;27;20039;-76
2023/05/30 05:08:33;;;;;;;6.70;3.72;;;;;;;17.97;43.98;99284.59;5130609;27;20249;-76
2023/05/30 05:11:01;;;;;;;9.35;4.20;;;;;;;18.01;44.17;99276.16;5147699;27;20039;-76
2023/05/30 05:13:28;;;;;;;7.05;4.43;;;;;;;18.05;44.18;99284.78;5148741;27;20039;-76
2023/05/30 05:15:55;;;;;;;10.27;4.65;;;;;;;17.18;43.52;99131.50;5148357;27;20092;-76
2023/05/30 05:18:22;;;;;;;14.23;4.72;;;;;;;18.07;43.26;99283.69;5148407;27;20306;-76
2023/05/30 05:20:49;;;;;;;9.50;3.75;;;;;;;18.11;43.44;99287.78;5148356;27;20043;-76
2023/05/30 05:23:16;;;;;;;5.80;3.90;;;;;;;18.13;43.63;99295.69;5148543;27;20202;-76
2023/05/30 05:25:44;;;;;;;6.80;4.28;;;;;;;18.17;43.58;99287.25;5147400;27;20039;-76
2023/05/30 05:28:11;;;;;;;5.68;3.75;;;;;;;18.22;43.81;99297.56;5148490;27;20108;-76
2023/05/30 05:30:38;;;;;;;15.82;5.00;;;;;;;18.24;43.52;99293.78;5130499;27;20039;-76
2023/05/30 05:33:05;;;;;;;10.15;4.40;;;;;;;18.31;43.66;99301.28;5148092;27;20168;-76
2023/05/30 05:35:32;;;;;;;6.30;4.18;;;;;;;18.34;43.06;99295.66;5147225;27;20199;-76
2023/05/30 05:37:58;;;;;;;5.43;4.03;;;;;;;18.38;43.22;99299.75;5147933;27;20100;-76
2023/05/30 05:40:25;;;;;;;6.78;4.18;;;;;;;18.39;43.44;99306.81;5146997;27;20080;-76
2023/05/30 05:42:54;;;;;;;5.25;4.10;;;;;;;18.42;43.37;99298.50;5147473;27;20068;-76
2023/05/30 05:45:20;;;;;;;7.20;4.95;;;;;;;18.44;43.41;99296.53;5147711;27;20039;-76
2023/05/30 05:47:47;;;;;;;7.43;3.72;;;;;;;18.48;43.34;99311.38;5146426;27;20058;-75
2023/05/30 05:50:14;;;;;;;6.20;3.90;;;;;;;18.52;43.23;99305.63;5147482;27;20035;-76
2023/05/30 05:52:41;;;;;;;7.60;4.28;;;;;;;18.55;43.49;99307.19;5147931;27;20221;-76
2023/05/30 05:55:11;;;;;;;6.35;4.18;;;;;;;17.91;43.46;99201.03;5147705;27;20362;-76
2023/05/30 05:57:38;;;;;;;7.68;4.45;;;;;;;18.62;43.01;99313.72;5147981;27;20080;-76
2023/05/30 06:00:12;;;;;;;10.65;5.13;;;;;;;18.61;42.85;99317.38;5146721;27;20047;-75
2023/05/30 06:02:38;;;;;;;6.43;4.25;;;;;;;18.63;43.04;99326.16;5147739;27;20035;-75
2023/05/30 06:05:07;;;;;;;7.38;4.38;;;;;;;18.67;42.86;99327.59;5147444;27;20121;-75
2023/05/30 06:07:35;;;;;;;6.55;4.22;;;;;;;18.71;43.18;99323.63;5147534;27;20088;-75
2023/05/30 06:10:02;;;;;;;7.68;4.78;;;;;;;18.73;42.82;99320.81;5146809;27;20042;-75
2023/05/30 06:12:29;;;;;;;5.97;3.80;;;;;;;18.11;43.12;99223.41;5147338;27;20103;-75
2023/05/30 06:14:55;;;;;;;8.93;4.40;;;;;;;18.79;42.84;99325.63;5147141;27;20097;-75
2023/05/30 06:17:23;;;;;;;6.70;4.03;;;;;;;18.81;43.06;99313.78;5147203;27;20180;-75
2023/05/30 06:19:51;;;;;;;7.43;3.67;;;;;;;18.84;42.88;99318.88;5146070;27;20051;-76
2023/05/30 06:22:18;;;;;;;7.53;3.92;;;;;;;18.86;43.05;99314.22;5146003;27;20352;-76
2023/05/30 06:24:44;;;;;;;4.40;3.42;;;;;;;18.23;42.49;99232.22;5146907;27;20043;-76
2023/05/30 06:27:11;;;;;;;5.53;3.95;;;;;;;18.92;42.98;99321.72;5147366;27;20363;-75
2023/05/30 06:29:38;;;;;;;8.20;4.22;;;;;;;18.99;42.56;99332.75;5146084;27;20100;-75
2023/05/30 06:32:06;;;;;;;5.53;4.20;;;;;;;18.55;42.78;99245.47;5145885;27;20057;-75
2023/05/30 06:34:34;;;;;;;5.82;3.88;;;;;;;19.10;42.54;99335.31;5146169;27;20309;-75
2023/05/30 06:37:01;;;;;;;6.05;4.20;;;;;;;19.16;42.51;99331.22;5147425;27;20039;-75
2023/05/30 06:39:28;;;;;;;6.53;4.10;;;;;;;19.20;42.42;99327.28;5146040;27;20084;-76
2023/05/30 06:41:55;;;;;;;5.90;4.00;;;;;;;19.24;42.41;99326.84;5147153;27;20054;-75
2023/05/30 06:44:21;;;;;;;6.68;4.00;;;;;;;19.31;42.34;99332.50;5146623;27;20059;-75
2023/05/30 06:46:48;;;;;;;5.88;3.95;;;;;;;19.36;42.38;99332.94;5146939;27;20039;-76
2023/05/30 06:49:15;;;;;;;7.43;4.68;;;;;;;18.08;42.24;99126.31;5146909;27;20058;-76
2023/05/30 06:51:46;;;;;;;7.50;4.30;;;;;;;19.47;42.14;99324.75;5146179;27;20176;-76
2023/05/30 06:54:13;;;;;;;6.72;4.28;;;;;;;19.52;42.32;99332.41;5146559;27;20035;-76
2023/05/30 06:56:39;;;;;;;10.18;4.00;;;;;;;19.58;41.97;99330.97;5146335;27;20096;-76
2023/05/30 06:59:06;;;;;;;9.15;4.40;;;;;;;19.62;41.99;99335.94;5146644;27;20305;-76
2023/05/30 07:01:33;;;;;;;8.85;4.57;;;;;;;19.69;41.96;99331.69;5145563;27;20071;-75
2023/05/30 07:04:00;;;;;;;7.05;4.70;;;;;;;19.77;42.01;99330.97;5145473;27;20066;-75
2023/05/30 07:06:27;;;;;;;7.15;4.88;;;;;;;19.53;41.64;99294.63;5146479;28;20054;-75
2023/05/30 07:08:55;;;;;;;9.80;5.63;;;;;;;20.00;41.55;99343.13;5147062;28;20080;-75
2023/05/30 07:11:22;;;;;;;6.70;4.47;;;;;;;20.11;41.52;99342.13;5146555;27;20281;-76
2023/05/30 07:13:48;;;;;;;7.45;4.32;;;;;;;20.26;41.28;99340.69;5146427;28;20034;-76
2023/05/30 07:16:15;;;;;;;12.45;5.95;;;;;;;20.41;41.01;99339.22;5145435;28;20084;-75
2023/05/30 07:18:42;;;;;;;10.27;4.75;;;;;;;20.58;40.46;99342.97;5146767;28;20065;-76
2023/05/30 07:21:10;;;;;;;13.07;4.68;;;;;;;20.74;40.72;99347.72;5146417;28;20256;-74
2023/05/30 07:23:37;;;;;;;7.07;4.47;;;;;;;20.87;40.22;99350.06;5146433;28;20088;-76
2023/05/30 07:26:05;;;;;;;7.93;4.75;;;;;;;20.90;40.09;99325.53;5146705;28;20053;-76
2023/05/30 07:28:31;;;;;;;10.45;5.65;;;;;;;20.86;39.65;99294.50;5146782;27;20046;-75
2023/05/30 07:30:58;;;;;;;8.73;5.45;;;;;;;21.28;39.45;99346.00;5146029;28;20050;-75
2023/05/30 07:33:25;;;;;;;12.38;4.95;;;;;;;21.30;39.25;99325.16;5146291;28;20092;-76
2023/05/30 07:35:51;;;;;;;10.18;4.53;;;;;;;21.59;39.34;99335.69;5145449;28;20039;-76
2023/05/30 07:38:18;;;;;;;8.35;4.55;;;;;;;21.73;39.14;99337.84;5145322;28;20039;-76
2023/05/30 07:40:45;;;;;;;12.88;6.28;;;;;;;21.89;39.11;99340.69;5145535;28;20043;-75
2023/05/30 07:43:13;;;;;;;11.05;5.43;;;;;;;22.04;38.42;99333.72;5145789;28;20074;-75
2023/05/30 07:45:40;;;;;;;8.10;5.22;;;;;;;22.25;38.38;99335.19;5148253;27;20282;-76
2023/05/30 07:48:07;;;;;;;7.40;5.38;;;;;;;20.19;38.45;98952.09;5150695;27;20043;-74
2023/05/30 07:50:34;;;;;;;9.68;5.38;;;;;;;22.63;37.87;99337.50;5148922;27;20047;-75
2023/05/30 07:53:00;;;;;;;10.05;4.85;;;;;;;22.78;37.47;99329.63;5150055;27;20035;-76
2023/05/30 07:55:27;;;;;;;9.15;4.75;;;;;;;22.79;37.10;99314.25;5149519;27;20043;-76
2023/05/30 07:57:54;;;;;;;8.77;5.18;;;;;;;23.09;37.03;99332.59;5149884;27;20058;-75
2023/05/30 08:00:23;;;;;;;8.77;4.15;;;;;;;22.65;37.20;99230.13;5149939;27;20051;-76
2023/05/30 08:02:50;;;;;;;8.05;5.05;;;;;;;23.40;37.30;99332.00;5150503;27;20049;-76
2023/05/30 08:05:17;;;;;;;6.57;4.72;;;;;;;23.51;36.79;99327.13;5148626;27;20070;-76
2023/05/30 08:07:44;;;;;;;10.25;5.22;;;;;;;23.54;36.34;99325.94;5148754;27;20041;-76
2023/05/30 08:10:11;;;;;;;7.07;4.63;;;;;;;23.52;36.28;99333.38;5149645;27;20035;-76
2023/05/30 08:12:38;;;;;;;9.60;5.13;;;;;;;23.67;36.26;99327.13;5149834;27;20093;-76
2023/05/30 08:15:07;;;;;;;7.20;4.60;;;;;;;23.59;36.39;99281.16;5149010;27;20043;-76
2023/05/30 08:17:35;;;;;;;6.13;4.38;;;;;;;24.09;36.25;99336.09;5149765;27;20055;-76
2023/05/30 08:20:03;;;;;;;9.88;5.90;;;;;;;24.24;36.28;99331.69;5150183;27;20043;-76
2023/05/30 08:22:31;;;;;;;9.27;5.22;;;;;;;23.83;36.06;99274.03;5149308;27;20088;-76
2023/05/30 08:24:59;;;;;;;8.48;5.60;;;;;;;24.06;36.35;99331.88;5148532;27;20088;-75
2023/05/30 08:27:26;;;;;;;9.35;4.45;;;;;;;24.14;36.30;99341.84;5149949;27;20084;-76
2023/05/30 08:29:53;;;;;;;7.38;4.70;;;;;;;24.08;36.65;99348.78;5149338;27;20169;-76
2023/05/30 08:32:20;;;;;;;11.05;5.20;;;;;;;24.08;36.66;99347.94;5149599;27;20088;-75
2023/05/30 08:34:51;;;;;;;6.47;4.90;;;;;;;24.05;35.94;99351.84;5149427;27;20039;-76
2023/05/30 08:37:18;;;;;;;10.60;5.70;;;;;;;23.66;36.44;99287.56;5149604;27;20038;-76
2023/05/30 08:39:45;;;;;;;7.13;5.15;;;;;;;24.08;36.55;99351.50;5148393;27;20035;-76
2023/05/30 08:42:13;;;;;;;11.18;4.80;;;;;;;24.06;36.44;99337.28;5148106;27;20047;-76
2023/05/30 08:44:40;;;;;;;13.95;4.00;;;;;;;24.24;36.18;99348.78;5148153;27;20337;-76
2023/05/30 08:47:12;;;;;;;11.25;4.68;;;;;;;24.23;36.44;99347.06;5147953;27;20039;-76
2023/05/30 08:49:42;;;;;;;8.05;4.95;;;;;;;24.24;36.22;99356.88;5148023;27;20066;-76
2023/05/30 08:52:14;;;;;;;11.43;5.30;;;;;;;22.63;35.64;99091.72;5148979;27;20047;-75
2023/05/30 08:54:45;;;;;;;7.22;4.38;;;;;;;24.06;36.06;99340.00;5148946;27;20148;-76
2023/05/30 08:57:24;;;;;;;7.85;4.07;;;;;;;24.05;35.52;99359.13;5130184;27;20122;-76
2023/05/30 08:59:54;;;;;;;8.63;4.18;;;;;;;24.01;36.40;99353.19;5147675;27;20323;-76
2023/05/30 09:02:21;;;;;;;8.57;4.68;;;;;;;24.06;36.37;99352.69;5147978;27;20049;-76
2023/05/30 09:04:49;;;;;;;7.68;4.70;;;;;;;23.65;36.52;99287.72;5149114;27;20284;-76
2023/05/30 09:07:19;;;;;;;8.27;4.93;;;;;;;24.13;36.17;99351.84;5147818;27;20058;-76
2023/05/30 09:09:47;;;;;;;5.65;4.18;;;;;;;24.17;36.21;99344.22;5148563;27;20054;-76
2023/05/30 09:12:14;;;;;;;7.68;4.72;;;;;;;24.15;36.09;99351.66;5148799;27;20035;-76
2023/05/30 09:14:41;;;;;;;8.43;4.32;;;;;;;24.07;36.22;99346.25;5147564;27;20041;-76
2023/05/30 09:17:08;;;;;;;10.52;4.88;;;;;;;24.15;36.02;99360.63;5148442;27;20039;-76
2023/05/30 09:19:39;;;;;;;7.30;4.30;;;;;;;24.15;35.58;99355.22;5147879;27;20152;-76
2023/05/30 09:22:06;;;;;;;9.48;4.20;;;;;;;24.07;35.61;99355.22;5147487;27;20225;-76
2023/05/30 09:24:58;;;;;;;8.05;4.22;;;;;;;24.00;34.57;99354.22;5148287;27;20057;-76
2023/05/30 09:27:25;;;;;;;9.77;4.53;;;;;;;24.01;35.78;99353.19;5147403;27;20035;-76
2023/05/30 09:29:53;;;;;;;8.40;4.07;;;;;;;24.13;36.16;99359.97;5147346;27;20070;-76
2023/05/30 09:32:20;;;;;;;8.60;4.47;;;;;;;24.25;36.04;99355.03;5148122;27;20035;-76
2023/05/30 09:34:55;;;;;;;9.93;5.00;;;;;;;24.28;35.46;99354.69;5147969;27;20035;-76
2023/05/30 09:37:23;;;;;;;6.15;4.45;;;;;;;24.31;35.68;99357.06;5148036;27;20109;-76
2023/05/30 09:40:11;;;;;;;15.23;5.60;;;;;;;23.94;34.96;99290.75;5148136;27;20039;-76
2023/05/30 09:42:42;;;;;;;11.23;6.10;;;;;;;24.44;35.46;99357.34;5147817;27;20051;-76
2023/05/30 09:45:11;;;;;;;8.10;5.50;;;;;;;24.28;35.75;99311.34;5142719;27;20114;-77
2023/05/30 09:47:44;;;;;;;10.77;8.00;;;;;;;24.47;35.30;99339.91;5147960;27;20267;-76
2023/05/30 09:50:12;;;;;;;15.73;6.90;;;;;;;24.62;35.66;99357.97;5147631;27;20313;-76
2023/05/30 09:52:40;;;;;;;10.02;5.53;;;;;;;23.82;35.84;99220.91;5146771;27;20199;-76
2023/05/30 09:55:10;;;;;;;12.18;5.25;;;;;;;24.66;35.25;99365.78;5147835;27;20073;-76
2023/05/30 09:57:38;;;;;;;9.25;4.82;;;;;;;24.43;35.09;99342.13;5148070;27;20114;-76
2023/05/30 10:00:10;;;;;;;8.85;4.80;;;;;;;24.42;35.31;99348.56;5147818;27;20030;-76
2023/05/30 10:02:40;;;;;;;11.45;5.43;;;;;;;24.36;35.70;99341.13;5147278;27;20039;-76
2023/05/30 10:05:19;;;;;;;11.55;6.93;;;;;;;24.57;34.83;99368.50;5146795;27;20035;-76
2023/05/30 10:07:47;;;;;;;7.65;5.45;;;;;;;24.63;35.44;99361.53;5147452;27;20051;-76
2023/05/30 10:10:16;;;;;;;10.10;5.93;;;;;;;24.72;34.94;99362.38;5147049;27;20043;-75
2023/05/30 10:12:44;;;;;;;6.95;5.10;;;;;;;22.94;34.99;99066.72;5147616;27;20225;-79
2023/05/30 10:15:11;;;;;;;8.30;6.00;;;;;;;24.83;34.76;99370.97;5149878;27;20098;-78
2023/05/30 10:17:46;;;;;;;7.18;5.20;;;;;;;24.45;34.83;99288.63;5148750;27;20085;-79
2023/05/30 10:20:14;;;;;;;8.32;5.97;;;;;;;24.42;34.78;99285.41;5152364;27;20311;-79
2023/05/30 10:22:43;;;;;;;14.18;8.65;;;;;;;24.94;34.48;99367.88;5150995;27;20039;-78
2023/05/30 10:25:11;;;;;;;11.68;5.75;;;;;;;24.95;34.55;99368.72;5146583;27;20035;-77
2023/05/30 10:27:44;;;;;;;9.15;7.00;;;;;;;25.07;34.72;99358.38;5146297;27;20065;-78
2023/05/30 10:30:15;;;;;;;10.15;6.38;;;;;;;24.48;34.61;99244.09;5146800;27;20047;-77
2023/05/30 10:32:45;;;;;;;10.02;5.30;;;;;;;25.18;34.28;99345.25;5146959;27;20039;-78
2023/05/30 10:35:15;;;;;;;6.70;5.40;;;;;;;25.17;34.10;99342.72;5146621;27;20041;-78
2023/05/30 10:37:43;;;;;;;7.28;5.90;;;;;;;25.16;34.31;99351.88;5147508;27;20256;-77
2023/05/30 10:40:20;;;;;;;8.95;5.80;;;;;;;25.16;34.21;99341.88;5147156;27;20039;-77
2023/05/30 10:43:01;;;;;;;6.72;5.07;;;;;;;25.17;33.60;99350.84;5146267;27;20111;-78
2023/05/30 10:45:36;;;;;;;9.77;8.70;;;;;;;25.15;34.11;99312.22;5147770;27;20047;-78
2023/05/30 10:48:11;;;;;;;10.93;6.32;;;;;;;25.30;34.10;99326.69;5146421;27;20180;-78
2023/05/30 10:50:43;;;;;;;7.95;5.20;;;;;;;25.34;33.56;99330.78;5146408;27;20054;-78
2023/05/30 10:53:15;;;;;;;25.13;6.57;;;;;;;25.34;33.57;99327.22;5148391;27;20039;-80
2023/05/30 10:55:43;;;;;;;11.13;7.35;;;;;;;25.37;34.27;99324.16;5146775;27;20035;-78
2023/05/30 10:58:37;;;;;;;10.25;5.63;;;;;;;25.38;33.01;99315.84;5146345;27;20043;-79
2023/05/30 11:01:24;;;;;;;7.78;5.65;;;;;;;25.48;33.45;99312.88;5149358;27;20054;-79
2023/05/30 11:03:57;;;;;;;9.57;5.75;;;;;;;25.54;33.32;99323.84;5152846;27;20043;-80
2023/05/30 11:06:25;;;;;;;6.10;4.63;;;;;;;25.51;33.44;99317.94;5151214;27;20088;-81
2023/05/30 11:08:53;;;;;;;7.97;4.85;;;;;;;25.48;33.03;99310.16;5153416;27;20043;-81
2023/05/30 11:11:21;;;;;;;5.55;3.78;;;;;;;25.46;32.79;99315.78;5153137;27;20047;-80
2023/05/30 11:13:50;;;;;;;4.90;3.72;;;;;;;24.31;32.55;99140.41;5152331;28;20070;-80
2023/05/30 11:16:24;;;;;;;8.63;4.13;;;;;;;25.32;32.39;99307.53;5153518;28;20039;-80
2023/05/30 11:18:53;;;;;;;7.45;4.60;;;;;;;25.39;32.74;99313.97;5154874;27;20211;-80
2023/05/30 11:21:54;;;;;;;7.32;3.92;;;;;;;25.41;32.25;99299.19;5156258;27;20039;-80
2023/05/30 11:24:21;;;;;;;7.60;5.72;;;;;;;25.49;33.18;99309.13;5154880;27;20054;-79
2023/05/30 11:26:56;;;;;;;11.68;6.55;;;;;;;25.54;32.21;99294.00;5152017;27;20070;-79
2023/05/30 11:29:47;;;;;;;7.10;4.97;;;;;;;25.36;31.72;99257.34;5158205;27;20051;-80
2023/05/30 11:32:18;;;;;;;9.85;7.15;;;;;;;25.28;32.55;99244.66;5133858;27;20035;-79
2023/05/30 11:34:44;;;;;;;7.72;5.38;;;;;;;25.29;32.62;99230.09;5153593;27;20321;-79
2023/05/30 11:37:12;;;;;;;6.65;4.28;;;;;;;25.58;32.76;99286.34;5152811;27;20039;-80
2023/05/30 11:39:38;;;;;;;5.88;4.50;;;;;;;25.53;32.64;99284.19;5154349;27;20042;-80